Marvin, Missouri
Current Conditions -  °F | °C
As of 10:53 AM on Thursday 23 Oct 2014 (Local Time) from KDMO Reporting Station
Overcast Overcast  
Wind Chill: 58°   Ceiling: 8500
Heat Index: 58°   Visibility: 10mi
Dew Point: 48°   Wind: 9mph
Humidity: 70%   Direction: 210°SSW
Pressure: 30.16"   Gusts: NA
Location:  38.4499°N, 92.8168°W
Report Text: KDMO 231553Z AUTO 21008KT 10SM OVC085 14/09 A3016 RMK AO2 SLP213 T01440089
Loading
Personal Weather Stations






























Interactive Weather Map
Tropical Storm Tracking
New forecast layout! Learn more

10-Day Weather Forecast

Advertisements
Track Severe Weather on mobile